Time;durP1;ratioP1;P1;durP2;ratioP2;P2;SDS_P1;SDS_P2;PMS_P1;PMS_P2;Temp;Humidity;BMP_temperature;BMP_pressure;BME280_temperature;BME280_humidity;BME280_pressure;Samples;Min_cycle;Max_cycle;Signal;HPM_P1;HPM_P2
2024/03/25 00:01:06;;;;;;;3.92;2.30;;;7.00;99.90;;;;;;5050254;28;20662;-75
2024/03/25 00:03:33;;;;;;;8.57;2.67;;;6.90;99.90;;;;;;5049354;28;20253;-72
2024/03/25 00:05:59;;;;;;;7.78;3.65;;;6.90;99.90;;;;;;5052723;28;20319;-70
2024/03/25 00:08:26;;;;;;;5.55;1.30;;;7.00;99.90;;;;;;5058653;28;20294;-73
2024/03/25 00:10:51;;;;;;;2.83;1.92;;;6.90;99.90;;;;;;5052255;28;20261;-72
2024/03/25 00:13:20;;;;;;;1.65;1.50;;;7.00;99.90;;;;;;5054149;28;20200;-71
2024/03/25 00:15:46;;;;;;;2.35;1.85;;;6.90;99.90;;;;;;5052617;28;20222;-71
2024/03/25 00:18:14;;;;;;;2.38;1.30;;;7.00;99.90;;;;;;5059289;28;20200;-73
2024/03/25 00:20:40;;;;;;;6.65;2.10;;;7.00;99.90;;;;;;5052898;28;20200;-70
2024/03/25 00:23:07;;;;;;;9.88;1.83;;;7.00;99.90;;;;;;5050556;28;20210;-72
2024/03/25 00:25:34;;;;;;;10.30;1.75;;;7.00;99.90;;;;;;5048213;28;20259;-72
2024/03/25 00:28:00;;;;;;;3.22;2.03;;;7.00;99.90;;;;;;5058078;28;20200;-72
2024/03/25 00:30:26;;;;;;;5.80;1.83;;;7.00;99.90;;;;;;5051903;28;20199;-70
2024/03/25 00:32:53;;;;;;;2.50;1.87;;;7.00;99.90;;;;;;5045310;28;20230;-75
2024/03/25 00:35:21;;;;;;;2.92;1.70;;;7.00;99.90;;;;;;5046085;28;20462;-72
2024/03/25 00:37:48;;;;;;;3.90;1.92;;;7.10;99.90;;;;;;5064785;28;20692;-72
2024/03/25 00:40:15;;;;;;;3.85;1.85;;;7.10;99.90;;;;;;5063894;28;20377;-72
2024/03/25 00:42:41;;;;;;;2.33;1.48;;;7.10;99.90;;;;;;5069127;28;20265;-71
2024/03/25 00:45:08;;;;;;;4.72;1.50;;;7.10;99.90;;;;;;5065375;28;20681;-72
2024/03/25 00:47:35;;;;;;;9.90;2.10;;;7.10;99.90;;;;;;5069470;28;20204;-71
2024/03/25 00:50:01;;;;;;;3.60;1.88;;;7.10;99.90;;;;;;5047502;28;20200;-74
2024/03/25 00:52:30;;;;;;;3.53;1.55;;;7.20;99.90;;;;;;5048448;28;20247;-72
2024/03/25 00:54:56;;;;;;;4.70;1.95;;;7.10;99.90;;;;;;5055416;28;20208;-73
2024/03/25 00:57:23;;;;;;;4.80;1.53;;;7.10;99.90;;;;;;5059245;28;20204;-73
2024/03/25 00:59:49;;;;;;;2.90;1.88;;;7.10;99.90;;;;;;5054805;28;20442;-72
2024/03/25 01:02:16;;;;;;;2.90;1.57;;;7.10;99.90;;;;;;5054511;28;20204;-70
2024/03/25 01:04:43;;;;;;;2.17;1.42;;;7.10;99.90;;;;;;5044267;28;20914;-72
2024/03/25 01:07:10;;;;;;;7.13;2.15;;;7.10;99.90;;;;;;5056361;28;20239;-69
2024/03/25 01:09:37;;;;;;;6.38;2.90;;;7.10;99.90;;;;;;5045263;28;20624;-72
2024/03/25 01:12:05;;;;;;;3.50;1.90;;;7.10;99.90;;;;;;5055548;28;20212;-73
2024/03/25 01:14:31;;;;;;;14.63;2.60;;;7.10;99.90;;;;;;5059196;28;20200;-70
2024/03/25 01:16:58;;;;;;;6.57;1.70;;;7.10;99.90;;;;;;5060535;28;20768;-73
2024/03/25 01:19:24;;;;;;;3.65;2.25;;;7.10;99.90;;;;;;5053070;28;20503;-71
2024/03/25 01:21:51;;;;;;;5.70;1.60;;;7.10;99.90;;;;;;5060391;28;20203;-71
2024/03/25 01:24:17;;;;;;;4.20;1.80;;;7.10;99.90;;;;;;5054908;28;20438;-70
2024/03/25 01:26:45;;;;;;;3.92;2.22;;;7.10;99.90;;;;;;5060257;28;20231;-72
2024/03/25 01:29:12;;;;;;;3.47;1.70;;;7.10;99.90;;;;;;5049279;28;20283;-70
2024/03/25 01:31:39;;;;;;;5.38;2.30;;;7.10;99.90;;;;;;5060048;28;20211;-71
2024/03/25 01:34:06;;;;;;;3.17;2.03;;;7.00;99.90;;;;;;5055748;28;20270;-71
2024/03/25 01:36:33;;;;;;;7.10;2.33;;;7.00;99.90;;;;;;5054457;28;20282;-73
2024/03/25 01:39:00;;;;;;;3.50;2.05;;;7.00;99.90;;;;;;5054975;28;20735;-72
2024/03/25 01:41:26;;;;;;;4.45;2.40;;;6.90;99.90;;;;;;5054268;28;20807;-70
2024/03/25 01:43:54;;;;;;;3.17;1.70;;;6.80;99.90;;;;;;5055340;28;20196;-72
2024/03/25 01:46:21;;;;;;;7.25;3.65;;;6.80;99.90;;;;;;5055550;28;20224;-73
2024/03/25 01:48:49;;;;;;;7.35;4.95;;;6.80;99.90;;;;;;5045691;28;20267;-72
2024/03/25 01:51:18;;;;;;;5.28;2.80;;;6.70;99.90;;;;;;5055189;28;20207;-74
2024/03/25 01:53:46;;;;;;;8.02;3.78;;;6.70;99.90;;;;;;5056761;28;20203;-72
2024/03/25 01:56:14;;;;;;;6.75;3.85;;;6.60;99.90;;;;;;5046785;28;20265;-70
2024/03/25 01:58:41;;;;;;;12.35;2.70;;;6.60;99.90;;;;;;5050914;28;20192;-73
2024/03/25 02:01:13;;;;;;;7.05;2.47;;;6.60;99.90;;;;;;5053890;28;20605;-71
2024/03/25 02:03:41;;;;;;;8.98;2.30;;;6.60;99.90;;;;;;5054410;28;20207;-71
2024/03/25 02:06:12;;;;;;;6.70;3.40;;;6.60;99.90;;;;;;5050621;28;20224;-73
2024/03/25 02:08:40;;;;;;;7.50;3.42;;;6.60;99.90;;;;;;5054474;28;20204;-72
2024/03/25 02:11:07;;;;;;;10.65;3.67;;;6.70;99.90;;;;;;5053864;28;20204;-72
2024/03/25 02:13:35;;;;;;;7.07;2.55;;;6.70;99.90;;;;;;5053037;28;20196;-70
2024/03/25 02:16:02;;;;;;;4.50;2.55;;;6.70;99.90;;;;;;5054978;28;20231;-71
2024/03/25 02:18:30;;;;;;;8.93;3.10;;;6.60;99.90;;;;;;5053890;28;20204;-70
2024/03/25 02:20:57;;;;;;;6.20;3.00;;;6.60;99.90;;;;;;5052647;28;20236;-72
2024/03/25 02:23:24;;;;;;;5.95;2.10;;;6.50;99.90;;;;;;5054959;28;20290;-74
2024/03/25 02:25:52;;;;;;;6.80;2.50;;;6.50;99.90;;;;;;5054579;28;20235;-73
2024/03/25 02:28:20;;;;;;;8.75;2.75;;;6.50;99.90;;;;;;5054661;28;20193;-72
2024/03/25 02:30:47;;;;;;;4.90;2.10;;;6.50;99.90;;;;;;5056505;28;20204;-71
2024/03/25 02:33:14;;;;;;;7.30;2.40;;;6.50;99.90;;;;;;5052296;28;20222;-71
2024/03/25 02:35:43;;;;;;;13.65;2.90;;;6.60;99.90;;;;;;5053092;28;20763;-71
2024/03/25 02:38:11;;;;;;;8.15;2.60;;;6.60;99.90;;;;;;5056641;28;20202;-74
2024/03/25 02:40:37;;;;;;;7.43;2.55;;;6.60;99.90;;;;;;5059982;28;20195;-71
2024/03/25 02:43:11;;;;;;;5.43;2.40;;;6.60;99.90;;;;;;5062711;28;20242;-73
2024/03/25 02:45:37;;;;;;;5.53;2.72;;;6.70;99.90;;;;;;5055368;28;20276;-71
2024/03/25 02:48:05;;;;;;;6.57;2.10;;;6.80;99.90;;;;;;5058293;28;20220;-71
2024/03/25 02:50:32;;;;;;;3.17;2.22;;;6.80;99.90;;;;;;5053950;28;20596;-70
2024/03/25 02:52:59;;;;;;;3.90;2.42;;;6.90;99.90;;;;;;5054361;28;20283;-70
2024/03/25 02:55:25;;;;;;;5.30;2.75;;;6.90;99.90;;;;;;5061507;28;20217;-72
2024/03/25 02:57:52;;;;;;;5.27;2.80;;;6.90;99.90;;;;;;5046694;28;20576;-71
2024/03/25 03:00:19;;;;;;;5.05;2.03;;;6.90;99.90;;;;;;5051979;28;20439;-71
2024/03/25 03:02:46;;;;;;;5.03;2.97;;;6.80;99.90;;;;;;5053419;28;20269;-72
2024/03/25 03:05:12;;;;;;;8.73;3.67;;;6.70;99.90;;;;;;5046735;28;20235;-72
2024/03/25 03:07:39;;;;;;;15.50;3.78;;;6.80;99.90;;;;;;5056932;28;20207;-73
2024/03/25 03:10:06;;;;;;;6.15;2.42;;;6.80;99.90;;;;;;5053651;28;20251;-73
2024/03/25 03:12:33;;;;;;;13.70;3.35;;;6.70;99.90;;;;;;5052321;28;20208;-71
2024/03/25 03:14:59;;;;;;;6.85;2.70;;;6.70;99.90;;;;;;5057884;28;20204;-71
2024/03/25 03:17:28;;;;;;;5.87;3.33;;;6.70;99.90;;;;;;5067153;28;20258;-71
2024/03/25 03:19:53;;;;;;;5.07;2.13;;;6.70;99.90;;;;;;5069499;28;20450;-71
2024/03/25 03:22:20;;;;;;;4.43;2.47;;;6.70;99.90;;;;;;5072560;28;20202;-72
2024/03/25 03:24:46;;;;;;;6.05;2.42;;;6.60;99.90;;;;;;5063503;28;20949;-73
2024/03/25 03:27:16;;;;;;;12.18;2.95;;;6.70;99.90;;;;;;5049431;28;20305;-71
2024/03/25 03:29:41;;;;;;;5.32;2.47;;;6.60;99.90;;;;;;5052644;28;20254;-72
2024/03/25 03:32:09;;;;;;;6.37;2.30;;;6.60;99.90;;;;;;5052155;28;20200;-73
2024/03/25 03:34:36;;;;;;;5.93;3.05;;;6.60;99.90;;;;;;5051835;28;21031;-71
2024/03/25 03:37:03;;;;;;;7.47;2.83;;;6.60;99.90;;;;;;5056122;28;20247;-71
2024/03/25 03:39:29;;;;;;;5.82;3.33;;;6.60;99.90;;;;;;5053982;28;20261;-72
2024/03/25 03:41:56;;;;;;;6.18;3.40;;;6.60;99.90;;;;;;5053582;28;20200;-72
2024/03/25 03:44:22;;;;;;;9.02;3.70;;;6.50;99.90;;;;;;5052486;28;20256;-74
2024/03/25 03:46:49;;;;;;;8.25;3.10;;;6.50;99.90;;;;;;5055010;28;20218;-71
2024/03/25 03:49:16;;;;;;;7.30;3.53;;;6.50;99.90;;;;;;5044388;28;20196;-71
2024/03/25 03:51:44;;;;;;;6.35;3.40;;;6.60;99.90;;;;;;5146238;22;20365;-73
2024/03/25 03:54:10;;;;;;;5.53;2.47;;;6.50;99.90;;;;;;5072204;28;20225;-73
2024/03/25 03:56:37;;;;;;;5.53;4.00;;;6.60;99.90;;;;;;5071196;28;20215;-71
2024/03/25 03:59:04;;;;;;;5.45;2.55;;;6.60;99.90;;;;;;5065299;28;20450;-71
2024/03/25 04:01:31;;;;;;;5.75;3.00;;;6.60;99.90;;;;;;5057525;28;20196;-70
2024/03/25 04:03:57;;;;;;;5.03;2.53;;;6.70;99.90;;;;;;5066039;28;20253;-72
2024/03/25 04:06:25;;;;;;;10.13;3.20;;;6.70;99.90;;;;;;5065442;28;20222;-72
2024/03/25 04:08:52;;;;;;;9.80;3.80;;;6.70;99.90;;;;;;5069248;28;20791;-73
2024/03/25 04:11:19;;;;;;;11.38;3.40;;;6.70;99.90;;;;;;5071068;28;20238;-71
2024/03/25 04:13:46;;;;;;;5.88;3.10;;;6.70;99.90;;;;;;5073019;28;20203;-71
2024/03/25 04:16:13;;;;;;;10.80;3.30;;;6.70;99.90;;;;;;5070775;28;20642;-73
2024/03/25 04:18:42;;;;;;;6.15;3.08;;;6.70;99.90;;;;;;5071075;28;20203;-74
2024/03/25 04:21:13;;;;;;;6.88;3.15;;;6.80;99.90;;;;;;5071021;28;20253;-71
2024/03/25 04:23:40;;;;;;;14.23;3.50;;;6.80;99.90;;;;;;5067998;28;20244;-73
2024/03/25 04:26:09;;;;;;;11.95;3.45;;;6.80;99.90;;;;;;5072433;28;20223;-73
2024/03/25 04:28:35;;;;;;;10.23;3.47;;;6.80;99.90;;;;;;5072205;28;20199;-72
2024/03/25 04:31:02;;;;;;;15.65;3.30;;;6.90;99.90;;;;;;5077535;28;20199;-72
2024/03/25 04:33:28;;;;;;;9.18;3.83;;;6.90;99.90;;;;;;5083340;28;20203;-72
2024/03/25 04:35:56;;;;;;;8.80;2.97;;;6.80;99.90;;;;;;5083195;28;20241;-69
